Time;durP1;ratioP1;P1;durP2;ratioP2;P2;SDS_P1;SDS_P2;PMS_P1;PMS_P2;Temp;Humidity;BMP_temperature;BMP_pressure;BME280_temperature;BME280_humidity;BME280_pressure;Samples;Min_cycle;Max_cycle;Signal;HPM_P1;HPM_P2
2024/02/29 00:00:50;;;;;;;26.30;13.70;;;8.00;99.90;;;;;;7270165;19;20752;-81
2024/02/29 00:03:16;;;;;;;28.40;15.10;;;8.00;99.90;;;;;;7296449;19;20193;-78
2024/02/29 00:05:41;;;;;;;33.07;15.40;;;8.00;99.90;;;;;;7286327;19;20181;-81
2024/02/29 00:08:07;;;;;;;27.63;14.57;;;8.00;99.90;;;;;;7313853;19;20667;-82
2024/02/29 00:10:33;;;;;;;31.13;15.27;;;8.10;99.90;;;;;;7295218;19;20210;-82
2024/02/29 00:13:00;;;;;;;31.90;16.13;;;8.20;99.90;;;;;;7293925;19;20985;-81
2024/02/29 00:15:29;;;;;;;29.57;15.43;;;8.20;99.90;;;;;;7290556;19;20225;-82
2024/02/29 00:17:56;;;;;;;34.57;14.80;;;8.30;99.90;;;;;;7296401;19;20190;-78
2024/02/29 00:20:23;;;;;;;27.80;13.87;;;8.20;99.90;;;;;;7293209;19;20194;-81
2024/02/29 00:22:49;;;;;;;27.90;14.00;;;8.20;99.90;;;;;;7289957;19;20221;-78
2024/02/29 00:25:15;;;;;;;26.17;14.03;;;8.20;99.90;;;;;;7294302;19;20188;-78
2024/02/29 00:27:42;;;;;;;29.90;13.67;;;8.30;99.90;;;;;;7157574;19;2778061;-81
2024/02/29 00:30:10;;;;;;;27.33;13.00;;;8.30;99.90;;;;;;7320917;19;20200;-78
2024/02/29 00:32:35;;;;;;;28.33;13.50;;;8.30;99.90;;;;;;7298585;19;20215;-78
2024/02/29 00:35:04;;;;;;;25.90;13.67;;;8.30;99.90;;;;;;7293736;19;20182;-82
2024/02/29 00:37:31;;;;;;;25.80;12.57;;;8.40;99.90;;;;;;7293882;19;20222;-78
2024/02/29 00:39:59;;;;;;;27.93;13.10;;;8.30;99.90;;;;;;7288148;19;20189;-78
2024/02/29 00:42:25;;;;;;;25.77;13.17;;;8.40;99.90;;;;;;7288495;19;20217;-78
2024/02/29 00:44:51;;;;;;;23.07;12.03;;;8.40;99.90;;;;;;7291129;19;20196;-78
2024/02/29 00:47:17;;;;;;;23.10;12.33;;;8.40;99.90;;;;;;7294675;19;20198;-80
2024/02/29 00:49:42;;;;;;;25.40;12.70;;;8.40;99.90;;;;;;7293324;19;20686;-78
2024/02/29 00:52:08;;;;;;;23.07;12.27;;;8.40;99.90;;;;;;7301239;19;20201;-82
2024/02/29 00:54:36;;;;;;;23.37;12.53;;;8.50;99.90;;;;;;7307635;19;20185;-82
2024/02/29 00:57:03;;;;;;;22.73;11.97;;;8.60;99.90;;;;;;7307215;19;20182;-82
2024/02/29 00:59:33;;;;;;;23.70;11.37;;;8.60;99.90;;;;;;7308836;19;21559;-82
2024/02/29 01:02:04;;;;;;;24.17;11.83;;;8.60;99.90;;;;;;7296386;19;20184;-79
2024/02/29 01:04:30;;;;;;;19.90;11.20;;;8.70;99.90;;;;;;7299858;19;20204;-81
2024/02/29 01:06:57;;;;;;;22.63;11.73;;;8.70;99.90;;;;;;7285500;19;20205;-78
2024/02/29 01:09:27;;;;;;;23.67;11.20;;;8.70;99.90;;;;;;7290997;19;20200;-82
2024/02/29 01:11:54;;;;;;;19.90;10.90;;;8.70;99.90;;;;;;7292092;19;20196;-82
2024/02/29 01:14:21;;;;;;;25.13;11.33;;;8.70;99.90;;;;;;7293393;19;20226;-78
2024/02/29 01:16:48;;;;;;;22.83;11.40;;;8.70;99.90;;;;;;7290818;19;20212;-82
2024/02/29 01:19:16;;;;;;;22.33;10.27;;;8.70;99.90;;;;;;7292085;19;20227;-78
2024/02/29 01:21:42;;;;;;;23.50;10.90;;;8.70;99.90;;;;;;7314479;19;20217;-78
2024/02/29 01:24:10;;;;;;;21.97;10.70;;;8.70;99.90;;;;;;7299507;19;20190;-81
2024/02/29 01:26:36;;;;;;;19.10;9.40;;;8.70;99.90;;;;;;7307421;19;20197;-80
2024/02/29 01:29:04;;;;;;;21.40;10.60;;;8.70;99.90;;;;;;7310866;19;20202;-79
2024/02/29 01:31:33;;;;;;;20.97;10.60;;;8.70;99.90;;;;;;7308958;19;21066;-78
2024/02/29 01:34:03;;;;;;;19.43;10.47;;;8.70;99.90;;;;;;7291221;19;20198;-81
2024/02/29 01:36:29;;;;;;;19.10;9.80;;;8.70;99.90;;;;;;7313267;19;20201;-81
2024/02/29 01:38:55;;;;;;;17.80;9.50;;;8.60;99.90;;;;;;7302048;19;20190;-78
2024/02/29 01:41:22;;;;;;;21.73;9.63;;;8.70;99.90;;;;;;7312948;19;20197;-78
2024/02/29 01:43:54;;;;;;;21.27;10.00;;;8.80;99.90;;;;;;7312282;19;21072;-78
2024/02/29 01:46:22;;;;;;;22.30;9.27;;;8.90;99.90;;;;;;7310176;19;20277;-79
2024/02/29 01:48:49;;;;;;;19.50;10.33;;;9.00;99.90;;;;;;7335989;19;20201;-78
2024/02/29 01:51:20;;;;;;;21.47;10.23;;;8.90;99.90;;;;;;7281742;19;20205;-80
2024/02/29 01:53:46;;;;;;;18.73;9.73;;;8.90;99.90;;;;;;7304988;19;20209;-82
2024/02/29 01:56:15;;;;;;;21.47;10.63;;;9.00;99.90;;;;;;7306299;19;20202;-81
2024/02/29 01:58:41;;;;;;;22.80;10.10;;;9.00;99.90;;;;;;7318568;19;20214;-80
2024/02/29 02:01:10;;;;;;;22.17;10.40;;;9.00;99.90;;;;;;7333776;19;20318;-78
2024/02/29 02:03:39;;;;;;;18.23;9.53;;;9.00;99.90;;;;;;7310986;19;20193;-81
2024/02/29 02:06:09;;;;;;;23.63;11.00;;;8.90;99.90;;;;;;7280092;19;20208;-81
2024/02/29 02:08:38;;;;;;;22.73;11.70;;;8.90;99.90;;;;;;7313034;19;20206;-81
2024/02/29 02:11:08;;;;;;;23.77;11.87;;;8.80;99.90;;;;;;7313121;19;20241;-81
2024/02/29 02:13:34;;;;;;;25.57;11.80;;;8.80;99.90;;;;;;7310559;19;20849;-77
2024/02/29 02:16:02;;;;;;;21.93;11.57;;;8.70;99.90;;;;;;7333530;19;20669;-78
2024/02/29 02:18:29;;;;;;;23.80;11.30;;;8.70;99.90;;;;;;7309369;19;20243;-78
2024/02/29 02:20:57;;;;;;;22.53;12.00;;;8.60;99.90;;;;;;7306470;19;20199;-79
2024/02/29 02:23:25;;;;;;;22.80;10.57;;;8.80;99.90;;;;;;7309658;19;20193;-81
2024/02/29 02:26:03;;;;;;;23.37;11.33;;;8.80;99.90;;;;;;7308532;19;20312;-81
2024/02/29 02:28:31;;;;;;;19.47;10.50;;;8.80;99.90;;;;;;7308976;19;20198;-79
2024/02/29 02:31:01;;;;;;;23.33;9.80;;;8.80;99.90;;;;;;7308398;19;20190;-78
2024/02/29 02:33:30;;;;;;;20.90;10.83;;;8.80;99.90;;;;;;7301227;19;20201;-79
2024/02/29 02:35:58;;;;;;;22.33;11.10;;;8.90;99.90;;;;;;7277763;19;20558;-78
2024/02/29 02:38:24;;;;;;;20.07;10.17;;;8.80;99.90;;;;;;7307214;19;20237;-81
2024/02/29 02:40:58;;;;;;;22.57;10.33;;;8.80;99.90;;;;;;7310000;19;20198;-77
2024/02/29 02:43:30;;;;;;;21.30;11.03;;;8.80;99.90;;;;;;7306689;19;20208;-77
2024/02/29 02:46:00;;;;;;;22.27;10.60;;;8.80;99.90;;;;;;7304812;19;20222;-77
2024/02/29 02:48:29;;;;;;;20.80;10.53;;;8.70;99.90;;;;;;7302095;19;20205;-82
2024/02/29 02:50:57;;;;;;;21.13;10.87;;;8.80;99.90;;;;;;7304939;19;20208;-78
2024/02/29 02:53:25;;;;;;;19.33;10.40;;;8.80;99.90;;;;;;7304632;19;20189;-80
2024/02/29 02:55:51;;;;;;;23.20;11.10;;;8.70;99.90;;;;;;7275623;19;20194;-78
2024/02/29 02:58:18;;;;;;;20.97;10.97;;;8.70;99.90;;;;;;7306327;19;20226;-78
2024/02/29 03:00:45;;;;;;;22.97;10.63;;;8.70;99.90;;;;;;7307661;19;20258;-81
2024/02/29 03:03:25;;;;;;;21.10;10.47;;;8.70;99.90;;;;;;7315686;19;20198;-78
2024/02/29 03:05:51;;;;;;;22.53;11.07;;;8.60;99.90;;;;;;7306916;19;20203;-79
2024/02/29 03:08:20;;;;;;;22.10;10.77;;;8.60;99.90;;;;;;7306555;19;20197;-78
2024/02/29 03:10:47;;;;;;;21.53;10.33;;;8.70;99.90;;;;;;7306618;19;20190;-81
2024/02/29 03:13:15;;;;;;;21.20;9.97;;;8.70;99.90;;;;;;7273512;19;20206;-81
2024/02/29 03:15:42;;;;;;;21.60;10.17;;;8.80;99.90;;;;;;7331838;19;20190;-78
2024/02/29 03:18:10;;;;;;;20.73;10.47;;;8.90;99.90;;;;;;7328885;19;20301;-78
2024/02/29 03:20:36;;;;;;;20.63;10.43;;;9.00;99.90;;;;;;7294246;19;20201;-78
2024/02/29 03:23:03;;;;;;;20.53;9.30;;;9.00;99.90;;;;;;7306330;19;20188;-81
2024/02/29 03:25:29;;;;;;;17.63;9.00;;;9.00;99.90;;;;;;7304555;19;20203;-81
2024/02/29 03:27:57;;;;;;;20.00;9.37;;;9.10;99.90;;;;;;7289886;19;20680;-78
2024/02/29 03:30:23;;;;;;;18.90;9.33;;;9.20;99.90;;;;;;7284754;19;20197;-82
2024/02/29 03:32:52;;;;;;;20.10;9.20;;;9.30;99.90;;;;;;7292036;19;20673;-79
2024/02/29 03:35:18;;;;;;;17.70;8.10;;;9.30;99.90;;;;;;7291829;19;20189;-82
2024/02/29 03:37:44;;;;;;;18.43;9.00;;;9.40;99.90;;;;;;7295266;19;20265;-78
2024/02/29 03:40:10;;;;;;;15.93;8.03;;;9.40;99.90;;;;;;7306626;19;20181;-77
2024/02/29 03:42:37;;;;;;;16.90;8.53;;;9.40;99.90;;;;;;7301973;19;20193;-78
2024/02/29 03:45:03;;;;;;;15.97;7.87;;;9.40;99.90;;;;;;7306278;19;20199;-81
2024/02/29 03:47:29;;;;;;;15.23;7.73;;;9.40;99.90;;;;;;7297857;19;20205;-78
2024/02/29 03:49:57;;;;;;;18.37;8.33;;;9.40;99.90;;;;;;7297579;19;20186;-81
2024/02/29 03:52:24;;;;;;;19.37;8.20;;;9.40;99.90;;;;;;7306248;19;20179;-81
2024/02/29 03:54:52;;;;;;;20.13;7.73;;;9.50;99.90;;;;;;7310274;19;20187;-78
2024/02/29 03:57:35;;;;;;;14.30;7.80;;;9.40;99.90;;;;;;7309827;19;20190;-77
2024/02/29 04:00:10;;;;;;;16.60;7.90;;;9.40;99.90;;;;;;7299882;19;20181;-77
2024/02/29 04:02:37;;;;;;;14.03;7.40;;;9.40;99.90;;;;;;7308682;19;20186;-81
2024/02/29 04:05:10;;;;;;;17.70;7.40;;;9.50;99.90;;;;;;7306265;19;20192;-81
2024/02/29 04:07:37;;;;;;;17.43;8.03;;;9.50;99.90;;;;;;7303465;19;20207;-81
2024/02/29 04:10:05;;;;;;;19.40;7.77;;;9.50;99.90;;;;;;7288238;19;20196;-78
2024/02/29 04:12:31;;;;;;;18.23;8.13;;;9.60;99.90;;;;;;7298360;19;20204;-78
2024/02/29 04:15:10;;;;;;;17.83;7.93;;;9.50;99.90;;;;;;7305484;19;20197;-78
2024/02/29 04:17:38;;;;;;;16.80;7.97;;;9.50;99.90;;;;;;7306398;19;20207;-77
2024/02/29 04:20:08;;;;;;;17.23;7.90;;;9.50;99.90;;;;;;7301839;19;20187;-81
2024/02/29 04:22:34;;;;;;;17.93;8.27;;;9.50;99.90;;;;;;7305619;19;20677;-81
2024/02/29 04:25:02;;;;;;;17.63;7.77;;;9.60;99.90;;;;;;7293832;19;21950;-81
2024/02/29 04:27:28;;;;;;;18.50;8.27;;;9.50;99.90;;;;;;7298670;19;20203;-78
2024/02/29 04:29:54;;;;;;;16.47;8.23;;;9.60;99.90;;;;;;7273968;19;20199;-82
2024/02/29 04:32:23;;;;;;;18.93;8.40;;;9.60;99.90;;;;;;7301470;19;20228;-81
2024/02/29 04:34:49;;;;;;;17.57;7.70;;;9.70;99.90;;;;;;7285935;19;20632;-81
2024/02/29 04:37:16;;;;;;;18.80;8.37;;;9.60;99.90;;;;;;7299577;19;20184;-82
2024/02/29 04:39:42;;;;;;;19.20;9.10;;;9.50;99.90;;;;;;7294120;19;20188;-77
2024/02/29 04:42:09;;;;;;;17.20;8.70;;;9.50;99.90;;;;;;7315521;19;20187;-81
2024/02/29 04:44:37;;;;;;;17.33;8.77;;;9.50;99.90;;;;;;7297842;19;20645;-77
2024/02/29 04:47:07;;;;;;;16.43;9.00;;;9.50;99.90;;;;;;7295065;19;20491;-81
2024/02/29 04:49:35;;;;;;;18.70;8.93;;;9.50;99.90;;;;;;7295956;19;20188;-81
2024/02/29 04:52:17;;;;;;;17.83;8.93;;;9.40;99.90;;;;;;7294497;19;20223;-81
2024/02/29 04:54:45;;;;;;;20.97;9.40;;;9.40;99.90;;;;;;7282168;19;20189;-81
2024/02/29 04:57:10;;;;;;;18.63;9.40;;;9.40;99.90;;;;;;7309373;19;20209;-80
2024/02/29 04:59:36;;;;;;;19.63;8.63;;;9.30;99.90;;;;;;7314040;19;20191;-78
2024/02/29 05:02:03;;;;;;;19.20;9.27;;;9.30;99.90;;;;;;7297653;19;20188;-78
2024/02/29 05:04:30;;;;;;;20.77;9.97;;;9.20;99.90;;;;;;7301997;19;22797;-81
2024/02/29 05:06:56;;;;;;;21.03;9.57;;;9.30;99.90;;;;;;7306933;19;20202;-81
2024/02/29 05:09:25;;;;;;;18.80;9.30;;;9.10;99.90;;;;;;7305668;19;20203;-80
2024/02/29 05:11:51;;;;;;;20.63;9.33;;;9.10;99.90;;;;;;7304763;19;20653;-81
2024/02/29 05:14:17;;;;;;;20.27;10.40;;;9.10;99.90;;;;;;7305073;19;20189;-81
2024/02/29 05:16:45;;;;;;;20.30;9.90;;;9.10;99.90;;;;;;7304105;19;20215;-82
2024/02/29 05:19:14;;;;;;;21.10;10.13;;;9.10;99.90;;;;;;7296958;19;20184;-78
2024/02/29 05:21:43;;;;;;;23.47;9.80;;;9.20;99.90;;;;;;7319305;19;20190;-78
2024/02/29 05:24:09;;;;;;;22.60;10.50;;;9.20;99.90;;;;;;7297829;19;20195;-78
2024/02/29 05:26:35;;;;;;;22.60;9.50;;;9.20;99.90;;;;;;7275426;19;20280;-81
2024/02/29 05:29:01;;;;;;;22.13;10.23;;;9.30;99.90;;;;;;7293878;19;20192;-82
2024/02/29 05:31:27;;;;;;;20.43;10.50;;;9.20;99.90;;;;;;7299104;19;20220;-81
2024/02/29 05:33:53;;;;;;;21.00;10.50;;;9.30;99.90;;;;;;7303853;19;20179;-81
2024/02/29 05:36:19;;;;;;;21.60;10.80;;;9.30;99.90;;;;;;7300834;19;20191;-82
2024/02/29 05:38:50;;;;;;;19.97;10.23;;;9.30;99.90;;;;;;7305786;19;20209;-81
2024/02/29 05:41:17;;;;;;;20.67;9.53;;;9.40;99.90;;;;;;7300680;19;20200;-78
2024/02/29 05:43:46;;;;;;;21.17;9.87;;;9.30;99.90;;;;;;7296149;19;20198;-81
2024/02/29 05:46:13;;;;;;;23.70;10.03;;;9.20;99.90;;;;;;7291788;19;20191;-81
2024/02/29 05:48:39;;;;;;;20.47;10.60;;;9.20;99.90;;;;;;7305242;19;20193;-82
2024/02/29 05:51:07;;;;;;;19.57;9.33;;;9.40;99.90;;;;;;7283152;19;20187;-82
2024/02/29 05:53:33;;;;;;;23.00;10.73;;;9.50;99.90;;;;;;7282128;19;20190;-81
2024/02/29 05:56:00;;;;;;;23.20;10.33;;;9.60;99.90;;;;;;7285819;19;20183;-82
2024/02/29 05:58:30;;;;;;;19.70;9.30;;;9.50;99.90;;;;;;7285785;19;20215;-78
2024/02/29 06:00:56;;;;;;;18.43;9.37;;;9.60;99.90;;;;;;7282981;19;20200;-77
2024/02/29 06:03:22;;;;;;;24.37;10.30;;;9.60;99.90;;;;;;7280532;19;20661;-78
2024/02/29 06:05:48;;;;;;;25.90;11.30;;;9.60;99.90;;;;;;7280018;19;20201;-76
2024/02/29 06:08:14;;;;;;;20.23;10.07;;;9.60;99.90;;;;;;7281112;19;20292;-76
2024/02/29 06:10:40;;;;;;;19.60;9.60;;;9.40;99.90;;;;;;7299670;19;20254;-77
2024/02/29 06:13:06;;;;;;;21.70;9.13;;;9.30;99.90;;;;;;7293295;19;20187;-78
2024/02/29 06:15:32;;;;;;;16.47;8.57;;;9.30;99.90;;;;;;7284243;19;20189;-82
2024/02/29 06:17:59;;;;;;;17.13;9.40;;;9.30;99.90;;;;;;7283344;19;20551;-78
2024/02/29 06:20:24;;;;;;;18.00;9.70;;;9.30;99.90;;;;;;7281160;19;20192;-78
2024/02/29 06:22:50;;;;;;;21.93;9.33;;;9.50;99.90;;;;;;7281591;19;20193;-78
2024/02/29 06:25:17;;;;;;;18.70;9.47;;;9.50;99.90;;;;;;7279314;19;20194;-78
2024/02/29 06:27:43;;;;;;;21.17;10.03;;;9.50;99.90;;;;;;7285596;19;20205;-82
2024/02/29 06:30:10;;;;;;;17.63;10.37;;;9.60;99.90;;;;;;7311952;19;20209;-78
2024/02/29 06:32:36;;;;;;;19.00;9.50;;;9.60;99.90;;;;;;7291238;19;20193;-78
2024/02/29 06:35:03;;;;;;;19.53;9.77;;;9.50;99.90;;;;;;7281260;19;20196;-78
2024/02/29 06:37:29;;;;;;;20.27;9.70;;;9.40;99.90;;;;;;7282825;19;20251;-77
2024/02/29 06:39:58;;;;;;;17.97;9.67;;;9.50;99.90;;;;;;7280744;19;20195;-78
2024/02/29 06:42:25;;;;;;;19.80;9.13;;;9.40;99.90;;;;;;7284093;19;20194;-78
2024/02/29 06:44:52;;;;;;;18.87;9.43;;;9.40;99.90;;;;;;7290005;19;20482;-78
2024/02/29 06:47:18;;;;;;;21.30;9.77;;;9.40;99.90;;;;;;7285099;19;20195;-83
2024/02/29 06:49:44;;;;;;;19.07;9.37;;;9.40;99.90;;;;;;7283441;19;20294;-82
2024/02/29 06:52:09;;;;;;;20.83;8.87;;;9.30;99.90;;;;;;7304227;19;20198;-80
2024/02/29 06:54:35;;;;;;;21.40;10.00;;;9.40;99.90;;;;;;7284450;19;21079;-79
2024/02/29 06:57:02;;;;;;;17.70;9.20;;;9.40;99.90;;;;;;7291363;19;20228;-78
2024/02/29 06:59:28;;;;;;;17.43;9.63;;;9.40;99.90;;;;;;7294603;19;20182;-79
2024/02/29 07:01:56;;;;;;;20.97;10.13;;;9.40;99.90;;;;;;7284384;19;20200;-79
2024/02/29 07:04:22;;;;;;;20.07;10.50;;;9.30;99.90;;;;;;7292238;19;20186;-78
2024/02/29 07:06:48;;;;;;;20.83;10.67;;;9.30;99.90;;;;;;7324824;19;20201;-79
2024/02/29 07:09:14;;;;;;;21.77;10.13;;;9.20;99.90;;;;;;7271754;19;20243;-79
2024/02/29 07:11:40;;;;;;;19.90;10.83;;;9.20;99.90;;;;;;7312672;19;20589;-78
2024/02/29 07:14:07;;;;;;;19.73;10.30;;;9.20;99.90;;;;;;7311626;19;20220;-79
2024/02/29 07:16:35;;;;;;;21.23;10.17;;;9.30;99.90;;;;;;7291901;19;20204;-79
2024/02/29 07:19:01;;;;;;;22.50;10.47;;;9.40;99.90;;;;;;7293177;19;20221;-79
2024/02/29 07:21:27;;;;;;;24.27;10.23;;;9.40;99.90;;;;;;7297937;19;20195;-79
2024/02/29 07:23:52;;;;;;;23.47;10.27;;;9.30;99.90;;;;;;7288182;19;20196;-79
2024/02/29 07:26:18;;;;;;;23.83;11.30;;;9.30;99.90;;;;;;7292278;19;20213;-78
2024/02/29 07:28:44;;;;;;;23.87;11.13;;;9.20;99.90;;;;;;7292730;19;20197;-79
2024/02/29 07:31:11;;;;;;;22.43;10.67;;;9.20;99.90;;;;;;7317640;19;20211;-80
2024/02/29 07:33:37;;;;;;;22.20;9.87;;;9.30;99.90;;;;;;7297015;19;20722;-80
2024/02/29 07:36:07;;;;;;;24.07;10.50;;;9.40;99.90;;;;;;7289380;19;20180;-79
2024/02/29 07:38:33;;;;;;;21.97;11.13;;;9.40;99.90;;;;;;7291666;19;20187;-80
2024/02/29 07:40:58;;;;;;;22.67;10.90;;;9.50;99.90;;;;;;7293196;19;20176;-79
2024/02/29 07:43:27;;;;;;;21.80;10.47;;;9.60;99.90;;;;;;7282717;19;20224;-81
2024/02/29 07:45:52;;;;;;;20.77;10.70;;;9.50;99.90;;;;;;7294864;19;20180;-79
2024/02/29 07:48:19;;;;;;;21.53;9.93;;;9.60;99.90;;;;;;7294059;19;20327;-79
2024/02/29 07:50:45;;;;;;;23.13;11.13;;;9.60;99.90;;;;;;7297123;19;20188;-81
2024/02/29 07:53:10;;;;;;;18.67;10.20;;;9.50;99.90;;;;;;7316175;19;20189;-79
2024/02/29 07:55:40;;;;;;;20.47;10.57;;;9.60;99.90;;;;;;7326349;19;20216;-79
2024/02/29 07:58:06;;;;;;;21.13;11.00;;;9.70;99.90;;;;;;7293100;19;20189;-79
2024/02/29 08:00:36;;;;;;;22.03;10.40;;;9.70;99.90;;;;;;7286448;19;20280;-80
2024/02/29 08:03:04;;;;;;;21.10;10.53;;;9.80;99.90;;;;;;7285547;19;20643;-80
2024/02/29 08:05:30;;;;;;;22.43;11.40;;;9.60;99.90;;;;;;7286825;19;20188;-79
2024/02/29 08:07:56;;;;;;;20.23;10.70;;;9.50;99.90;;;;;;7282846;19;20541;-79
2024/02/29 08:10:22;;;;;;;21.43;11.17;;;9.50;99.90;;;;;;7282582;19;20192;-79
2024/02/29 08:12:47;;;;;;;20.77;11.00;;;9.40;99.90;;;;;;7283046;19;20187;-79
2024/02/29 08:15:15;;;;;;;22.50;10.80;;;9.30;99.90;;;;;;7284847;19;20189;-80
2024/02/29 08:17:40;;;;;;;21.60;10.97;;;9.40;99.90;;;;;;7304670;19;20664;-79
2024/02/29 08:20:07;;;;;;;23.00;11.73;;;9.50;99.90;;;;;;7294764;19;20937;-79
2024/02/29 08:22:39;;;;;;;21.27;11.37;;;9.60;99.90;;;;;;7282435;19;20198;-80
2024/02/29 08:25:05;;;;;;;25.40;12.33;;;9.60;99.90;;;;;;7281450;19;20195;-79
2024/02/29 08:27:31;;;;;;;22.00;10.60;;;9.80;99.90;;;;;;7282505;19;20210;-79
2024/02/29 08:29:58;;;;;;;19.77;9.63;;;9.70;99.90;;;;;;7280768;19;20191;-81
2024/02/29 08:32:24;;;;;;;20.00;10.57;;;9.70;99.90;;;;;;7280956;19;20192;-80
2024/02/29 08:34:49;;;;;;;23.03;11.27;;;9.70;99.90;;;;;;7281079;19;20192;-79
2024/02/29 08:37:15;;;;;;;21.03;10.37;;;9.70;99.90;;;;;;7281229;19;20190;-79
2024/02/29 08:39:42;;;;;;;19.37;9.90;;;9.80;99.90;;;;;;7304300;19;20194;-78
2024/02/29 08:42:09;;;;;;;21.40;10.23;;;9.80;99.90;;;;;;7307667;19;20194;-80
2024/02/29 08:44:35;;;;;;;22.67;10.43;;;9.80;99.90;;;;;;7284900;19;20183;-79
2024/02/29 08:47:04;;;;;;;22.13;10.90;;;9.90;99.90;;;;;;7288274;19;20205;-79
2024/02/29 08:49:30;;;;;;;21.30;9.77;;;9.80;99.90;;;;;;7286212;19;20190;-79
2024/02/29 08:51:55;;;;;;;21.23;10.37;;;9.80;99.90;;;;;;7284738;19;20199;-79
2024/02/29 08:54:22;;;;;;;23.07;10.50;;;10.10;99.90;;;;;;7287669;19;20542;-79
2024/02/29 08:56:50;;;;;;;19.40;9.93;;;10.20;99.90;;;;;;7271823;19;20184;-78
2024/02/29 08:59:37;;;;;;;22.53;12.13;;;10.20;99.90;;;;;;7312210;19;20307;-79
2024/02/29 09:02:12;;;;;;;22.83;10.20;;;9.90;99.90;;;;;;7312073;19;20255;-79
2024/02/29 09:04:40;;;;;;;19.37;9.60;;;10.10;99.90;;;;;;7310255;19;20187;-79
2024/02/29 09:07:09;;;;;;;19.60;10.40;;;10.10;99.90;;;;;;7307883;19;20222;-80
2024/02/29 09:09:34;;;;;;;20.07;10.70;;;9.90;99.90;;;;;;7308698;19;20271;-80
2024/02/29 09:12:06;;;;;;;21.93;10.43;;;10.00;99.90;;;;;;7313682;19;20205;-79
2024/02/29 09:14:35;;;;;;;19.93;9.20;;;10.00;99.90;;;;;;7311510;19;20193;-79
2024/02/29 09:17:03;;;;;;;19.50;10.77;;;10.00;99.90;;;;;;7306566;19;20215;-80
2024/02/29 09:19:29;;;;;;;24.50;12.20;;;9.90;99.90;;;;;;7306469;19;20190;-79
2024/02/29 09:21:56;;;;;;;21.03;10.23;;;10.00;99.90;;;;;;7303877;19;20186;-79
2024/02/29 09:24:22;;;;;;;17.83;10.20;;;10.00;99.90;;;;;;7306075;19;20224;-79
2024/02/29 09:26:51;;;;;;;18.87;9.77;;;10.00;99.90;;;;;;7306108;19;20192;-79
2024/02/29 09:29:17;;;;;;;19.33;9.47;;;10.10;99.90;;;;;;7284001;19;20192;-78
2024/02/29 09:31:43;;;;;;;16.87;8.73;;;10.10;99.90;;;;;;7287865;19;20299;-79
2024/02/29 09:34:09;;;;;;;20.17;9.60;;;10.10;99.90;;;;;;7307669;19;20208;-80
2024/02/29 09:36:37;;;;;;;18.67;8.70;;;10.10;99.90;;;;;;7286537;19;20770;-79
2024/02/29 09:39:06;;;;;;;16.77;8.20;;;10.20;99.90;;;;;;7296106;19;20192;-79
2024/02/29 09:41:32;;;;;;;15.73;8.47;;;10.20;99.90;;;;;;7321617;19;20188;-79
2024/02/29 09:44:01;;;;;;;16.07;8.30;;;10.20;99.90;;;;;;7286513;19;20210;-80
2024/02/29 09:46:27;;;;;;;16.50;8.33;;;10.30;99.90;;;;;;7287149;19;20212;-79
2024/02/29 09:48:53;;;;;;;17.10;8.17;;;10.50;99.90;;;;;;7283310;19;20225;-80
2024/02/29 09:51:24;;;;;;;17.33;8.33;;;10.60;99.90;;;;;;7281651;19;20191;-79
2024/02/29 09:53:53;;;;;;;15.67;8.10;;;10.80;99.90;;;;;;7282916;19;20200;-79
2024/02/29 09:56:23;;;;;;;16.60;7.93;;;10.80;99.90;;;;;;7285472;19;20213;-79
2024/02/29 09:58:52;;;;;;;16.60;8.00;;;10.50;99.90;;;;;;7283837;19;20664;-79
2024/02/29 10:01:18;;;;;;;16.80;8.87;;;10.20;99.90;;;;;;7284081;19;20684;-79
2024/02/29 10:03:46;;;;;;;17.80;8.53;;;10.10;99.90;;;;;;7283096;19;20188;-79
2024/02/29 10:06:12;;;;;;;17.17;9.00;;;10.00;99.90;;;;;;7291667;19;20590;-79
2024/02/29 10:08:40;;;;;;;17.27;8.83;;;10.00;99.90;;;;;;7305748;19;20195;-79
2024/02/29 10:11:09;;;;;;;16.17;8.67;;;10.00;99.90;;;;;;7286761;19;20195;-79
2024/02/29 10:13:41;;;;;;;17.13;8.47;;;9.80;99.90;;;;;;7284286;19;20298;-79
2024/02/29 10:16:12;;;;;;;17.17;9.20;;;9.70;99.90;;;;;;7287827;19;20759;-79
2024/02/29 10:18:38;;;;;;;17.40;8.83;;;9.70;99.90;;;;;;7283423;19;20214;-80
2024/02/29 10:21:11;;;;;;;18.90;8.97;;;9.60;99.90;;;;;;7284308;19;20662;-80
2024/02/29 10:23:41;;;;;;;17.60;8.97;;;9.60;99.90;;;;;;7284723;19;20192;-81
2024/02/29 10:26:07;;;;;;;16.60;8.37;;;9.70;99.90;;;;;;7281421;19;20238;-79
2024/02/29 10:28:33;;;;;;;16.57;9.07;;;9.80;99.90;;;;;;7289737;19;20316;-80
2024/02/29 10:31:01;;;;;;;18.43;9.70;;;9.70;99.90;;;;;;7293019;19;20191;-79
2024/02/29 10:33:28;;;;;;;15.13;8.17;;;9.80;99.90;;;;;;7294370;19;20191;-79
2024/02/29 10:35:55;;;;;;;16.10;8.80;;;9.60;99.90;;;;;;7294161;19;20182;-79
2024/02/29 10:38:23;;;;;;;16.90;8.00;;;9.70;99.90;;;;;;7292312;19;20535;-80
2024/02/29 10:40:50;;;;;;;16.93;8.07;;;9.60;99.90;;;;;;7292931;19;20720;-79
2024/02/29 10:43:20;;;;;;;16.50;8.07;;;9.50;99.90;;;;;;7286889;19;20189;-79
2024/02/29 10:45:50;;;;;;;16.77;8.33;;;9.50;99.90;;;;;;7284664;19;20191;-80
2024/02/29 10:48:46;;;;;;;14.80;7.77;;;9.60;99.90;;;;;;7287992;19;20206;-79
2024/02/29 10:51:41;;;;;;;14.40;7.33;;;9.60;99.90;;;;;;7269478;19;20194;-79
2024/02/29 10:54:14;;;;;;;17.20;8.50;;;9.60;99.90;;;;;;7280825;19;20189;-80
2024/02/29 10:56:42;;;;;;;15.33;7.67;;;9.70;99.90;;;;;;7288510;19;20437;-80
2024/02/29 10:59:08;;;;;;;14.90;8.07;;;9.90;99.90;;;;;;7281439;19;20188;-80
2024/02/29 11:01:39;;;;;;;13.97;7.67;;;9.90;99.90;;;;;;7282601;19;20198;-80
2024/02/29 11:04:08;;;;;;;15.70;7.73;;;9.90;99.90;;;;;;7282462;19;20187;-80
2024/02/29 11:06:46;;;;;;;14.23;7.73;;;9.90;99.90;;;;;;7287674;19;20191;-81
2024/02/29 11:09:33;;;;;;;13.93;7.27;;;10.10;99.90;;;;;;7282088;19;20201;-80
2024/02/29 11:12:10;;;;;;;16.57;8.20;;;10.00;99.90;;;;;;7291241;19;20198;-80
2024/02/29 11:14:36;;;;;;;15.40;7.53;;;10.00;99.90;;;;;;7293863;19;20666;-80
2024/02/29 11:17:06;;;;;;;13.80;7.80;;;10.00;99.90;;;;;;7288691;19;20196;-80
2024/02/29 11:19:34;;;;;;;13.23;6.33;;;10.00;99.90;;;;;;7289723;19;22019;-80
2024/02/29 11:22:13;;;;;;;13.90;7.13;;;10.00;99.90;;;;;;7292480;19;20632;-80
2024/02/29 11:24:43;;;;;;;12.97;6.67;;;9.90;99.90;;;;;;7286279;19;20187;-80
2024/02/29 11:27:11;;;;;;;13.77;7.13;;;10.10;99.90;;;;;;7282803;19;20181;-79
2024/02/29 11:29:38;;;;;;;14.53;7.30;;;10.30;99.90;;;;;;7286320;19;20191;-80
2024/02/29 11:32:05;;;;;;;12.27;6.77;;;10.20;99.90;;;;;;7284745;19;20188;-80
2024/02/29 11:34:32;;;;;;;11.70;6.33;;;10.10;99.90;;;;;;7284482;19;20203;-80
2024/02/29 11:36:58;;;;;;;12.97;6.43;;;10.10;99.90;;;;;;7283792;19;20632;-80
2024/02/29 11:39:24;;;;;;;13.30;6.67;;;10.10;99.90;;;;;;7284053;19;20686;-80
2024/02/29 11:42:03;;;;;;;11.77;6.50;;;10.10;99.90;;;;;;7283448;19;20208;-80
2024/02/29 11:44:30;;;;;;;13.63;6.67;;;10.10;99.90;;;;;;7282247;19;20208;-81
2024/02/29 11:46:57;;;;;;;13.53;7.60;;;10.30;99.90;;;;;;7277993;19;20248;-80
2024/02/29 11:49:25;;;;;;;12.67;6.70;;;10.40;99.90;;;;;;7282598;19;20576;-80
2024/02/29 11:51:52;;;;;;;13.60;6.53;;;10.40;99.90;;;;;;7282173;19;20268;-79
2024/02/29 11:54:18;;;;;;;13.23;6.47;;;10.50;99.90;;;;;;7282319;19;20212;-79
2024/02/29 11:56:44;;;;;;;14.80;6.13;;;10.60;99.90;;;;;;7285792;19;20195;-79
2024/02/29 11:59:14;;;;;;;12.90;6.57;;;10.40;99.90;;;;;;7304940;19;20770;-80
2024/02/29 12:01:41;;;;;;;11.30;6.10;;;10.30;99.90;;;;;;7284562;19;20191;-79
2024/02/29 12:04:06;;;;;;;11.93;6.40;;;10.30;99.90;;;;;;7284915;19;20191;-79
2024/02/29 12:06:36;;;;;;;12.90;6.37;;;10.50;99.90;;;;;;7281766;19;20209;-79
2024/02/29 12:09:03;;;;;;;10.83;5.70;;;10.30;99.90;;;;;;7282774;19;20204;-79
2024/02/29 12:11:31;;;;;;;10.87;5.83;;;10.30;99.90;;;;;;7279686;19;20187;-79
2024/02/29 12:13:57;;;;;;;12.10;7.00;;;10.20;99.90;;;;;;7284628;19;20635;-79
2024/02/29 12:16:23;;;;;;;11.07;5.73;;;10.30;99.90;;;;;;7283527;19;20193;-79
2024/02/29 12:18:51;;;;;;;13.43;7.00;;;10.20;99.90;;;;;;7281824;19;20205;-79
2024/02/29 12:21:17;;;;;;;11.13;6.27;;;10.20;99.90;;;;;;7284799;19;20195;-79
2024/02/29 12:23:43;;;;;;;11.60;5.30;;;10.20;99.90;;;;;;7280643;19;20197;-78
2024/02/29 12:26:11;;;;;;;10.90;5.80;;;10.20;99.90;;;;;;7303143;19;20192;-79
2024/02/29 12:28:38;;;;;;;10.83;5.50;;;10.30;99.90;;;;;;7280651;19;20301;-80
2024/02/29 12:31:06;;;;;;;11.13;5.27;;;10.20;99.90;;;;;;7282258;19;20196;-80
2024/02/29 12:33:32;;;;;;;10.17;5.70;;;10.20;99.90;;;;;;7269194;19;20202;-80
2024/02/29 12:36:00;;;;;;;11.10;5.63;;;10.10;99.90;;;;;;7282203;19;20255;-79
2024/02/29 12:38:30;;;;;;;11.33;5.20;;;10.20;99.90;;;;;;7283297;19;20305;-79
2024/02/29 12:40:56;;;;;;;9.63;4.80;;;10.20;99.90;;;;;;7283996;19;20218;-79
2024/02/29 12:43:22;;;;;;;8.70;4.70;;;10.20;99.90;;;;;;7281894;19;20184;-80